Terminal Aerodrome Forecast
Issued by NWS North Platte, NE

Home | Current Version | Previous Version | Graphics & Text | Print | Product List | Glossary Off
Versions: 1 2 3 4 5 6 7 8 9 10 11 12 13 14 15 16 17 18

000
FTUS43 KLBF 191100
TAFVTN
TAF
KVTN 191134Z 1912/2012 35012KT P6SM BKN150
     FM191800 02011KT P6SM BKN120
     FM200000 12008KT P6SM BKN150
     FM200400 VRB06KT P6SM BKN250=

USA.gov is the U.S. government's official web portal to all federal, state and local government web resources and services.